< < Back
Terminal Aerodrome Forecast


Current Version              Previous Versions:   1  2  3  4  5  6  7  8  9  

Terminal Aerodrome Forecast

732
FTUS42 KFFC 200759 AAA
TAFPDK
TAF AMD
KPDK 200759Z 2008/2106 02005KT 5SM -RA BR OVC060
     FM201000 03004KT 6SM -RA BR OVC025
     FM201400 05005KT P6SM VCSH OVC028
     FM201900 08005KT P6SM BKN035
     FM202200 35004KT P6SM SCT050=



Latest METAR

681
SAUS70 KWBC 200900
MTRPDK
METAR KPDK 200853Z 17003KT 5SM -RA BR BKN075 OVC110 04/04 A3013 RMK AO2
SLP209 P0002 60006 T00440039 56006 $


USA.gov is the U.S. government's official web portal to all federal, state and local government web resources and services.